createdAt,value
2022-08-14T00:00:06.101Z,13.00
2022-08-14T00:02:54.875Z,13.30
2022-08-14T00:05:23.831Z,13.20
2022-08-14T00:07:52.684Z,17.60
2022-08-14T00:10:51.569Z,15.30
2022-08-14T00:13:14.672Z,12.10
2022-08-14T00:15:48.180Z,12.30
2022-08-14T00:19:05.549Z,13.20
2022-08-14T00:21:11.430Z,12.60
2022-08-14T00:23:41.024Z,12.20
2022-08-14T00:26:21.979Z,13.80
2022-08-14T00:28:53.476Z,10.80
2022-08-14T00:31:44.156Z,11.20
2022-08-14T00:34:37.746Z,12.10
2022-08-14T00:37:00.607Z,11.50
2022-08-14T00:39:31.027Z,10.50
2022-08-14T00:41:59.988Z,10.70
2022-08-14T00:44:32.830Z,10.30
2022-08-14T00:47:07.843Z,10.00
2022-08-14T00:49:42.581Z,10.80
2022-08-14T00:52:17.856Z,10.60
2022-08-14T00:54:52.929Z,9.00
2022-08-14T00:57:29.613Z,10.00
2022-08-14T01:00:00.025Z,9.80
2022-08-14T01:02:45.984Z,9.70
2022-08-14T01:05:23.330Z,9.70
2022-08-14T01:07:57.147Z,11.50
2022-08-14T01:10:43.660Z,10.20
2022-08-14T01:13:16.827Z,9.50
2022-08-14T01:15:57.780Z,11.20
2022-08-14T01:18:57.803Z,10.30
2022-08-14T01:21:34.646Z,10.40
2022-08-14T01:24:09.915Z,10.60
2022-08-14T01:26:39.860Z,9.90
2022-08-14T01:29:10.855Z,9.80
2022-08-14T01:31:45.915Z,10.10
2022-08-14T01:35:17.180Z,11.80
2022-08-14T01:37:11.776Z,11.90
2022-08-14T01:39:45.359Z,10.30
2022-08-14T01:42:30.991Z,10.50
2022-08-14T01:45:01.410Z,9.70
2022-08-14T01:47:33.555Z,10.60
2022-08-14T01:50:08.182Z,10.30
2022-08-14T01:52:59.143Z,11.20
2022-08-14T01:55:31.131Z,9.50
2022-08-14T01:58:20.325Z,11.10
2022-08-14T02:00:53.589Z,11.00
2022-08-14T02:03:24.565Z,10.20
2022-08-14T02:06:03.911Z,9.80
2022-08-14T02:08:53.234Z,11.30
2022-08-14T02:11:25.700Z,9.60
2022-08-14T02:13:59.091Z,11.30
2022-08-14T02:16:32.291Z,11.10
2022-08-14T02:19:05.093Z,11.10
2022-08-14T02:21:43.609Z,11.00
2022-08-14T02:24:40.231Z,10.80
2022-08-14T02:28:22.670Z,10.70
2022-08-14T02:29:55.942Z,11.80
2022-08-14T02:32:36.259Z,9.90
2022-08-14T02:35:13.171Z,10.70
2022-08-14T02:37:47.444Z,9.70
2022-08-14T02:40:18.795Z,10.00
2022-08-14T02:42:54.739Z,10.70
2022-08-14T02:45:32.812Z,11.10
2022-08-14T02:48:06.436Z,11.70
2022-08-14T02:50:41.435Z,10.00
2022-08-14T02:53:11.551Z,11.20
2022-08-14T02:55:45.447Z,10.60
2022-08-14T02:58:30.373Z,10.90
2022-08-14T03:01:01.345Z,10.00
2022-08-14T03:03:31.783Z,14.30
2022-08-14T03:06:01.155Z,9.70
2022-08-14T03:08:32.612Z,11.70
2022-08-14T03:11:06.003Z,10.50
2022-08-14T03:13:37.738Z,13.30
2022-08-14T03:16:19.852Z,11.20
2022-08-14T03:18:53.100Z,11.90
2022-08-14T03:21:24.364Z,11.00
2022-08-14T03:24:01.428Z,12.50
2022-08-14T03:26:30.920Z,13.20
2022-08-14T03:29:01.164Z,12.90
2022-08-14T03:31:31.270Z,12.20
2022-08-14T03:34:00.741Z,12.10
2022-08-14T03:37:51.594Z,12.50
2022-08-14T03:39:24.023Z,11.50
2022-08-14T03:41:55.431Z,11.70
2022-08-14T03:45:20.037Z,12.40
2022-08-14T03:47:15.409Z,12.40
2022-08-14T03:49:50.085Z,13.00
2022-08-14T03:52:40.810Z,12.60
2022-08-14T03:55:12.014Z,12.50
2022-08-14T03:57:40.975Z,11.60
2022-08-14T04:00:43.395Z,12.40
2022-08-14T04:03:24.359Z,12.90
2022-08-14T04:05:53.911Z,13.30
2022-08-14T04:08:30.974Z,13.40
2022-08-14T04:11:01.851Z,12.90
2022-08-14T04:13:34.627Z,13.10
2022-08-14T04:16:05.155Z,13.60
2022-08-14T04:18:39.224Z,14.20
2022-08-14T04:21:09.610Z,13.00
2022-08-14T04:23:40.053Z,13.40
2022-08-14T04:26:14.967Z,13.30
2022-08-14T04:29:06.969Z,12.20
2022-08-14T04:33:00.313Z,12.80
2022-08-14T04:34:34.572Z,13.60
2022-08-14T04:37:25.242Z,14.00
2022-08-14T04:40:15.200Z,15.00
2022-08-14T04:43:03.061Z,13.40
2022-08-14T04:45:40.000Z,14.60
2022-08-14T04:48:39.672Z,11.90
2022-08-14T04:51:05.118Z,13.60
2022-08-14T04:53:36.230Z,14.10
2022-08-14T04:56:30.817Z,13.60
2022-08-14T04:59:04.644Z,15.70
2022-08-14T05:01:47.668Z,14.10
2022-08-14T05:04:19.947Z,13.80
2022-08-14T05:06:53.562Z,13.40
2022-08-14T05:09:24.564Z,14.70
2022-08-14T05:13:08.301Z,14.40
2022-08-14T05:14:55.121Z,14.90
2022-08-14T05:17:34.753Z,12.80
2022-08-14T05:21:57.724Z,13.20
2022-08-14T05:23:02.893Z,14.50
2022-08-14T05:25:34.127Z,15.10
2022-08-14T05:28:18.574Z,14.20
2022-08-14T05:30:49.289Z,14.10
2022-08-14T05:33:21.868Z,15.20
2022-08-14T05:35:52.417Z,14.40
2022-08-14T05:38:31.095Z,15.00
2022-08-14T05:41:02.384Z,16.20
2022-08-14T05:43:41.262Z,14.20
2022-08-14T05:46:15.243Z,15.30
2022-08-14T05:48:47.190Z,17.10
2022-08-14T05:51:17.398Z,15.50
2022-08-14T05:54:00.189Z,15.30
2022-08-14T05:56:37.078Z,14.30
2022-08-14T05:59:06.150Z,16.00
2022-08-14T06:01:36.563Z,15.50
2022-08-14T06:04:08.574Z,16.00
2022-08-14T06:06:38.427Z,15.90
2022-08-14T06:09:09.728Z,17.10
2022-08-14T06:11:39.115Z,17.60
2022-08-14T06:14:20.988Z,19.80
2022-08-14T06:16:53.294Z,17.50
2022-08-14T06:19:23.128Z,18.60
2022-08-14T06:21:59.196Z,18.60
2022-08-14T06:24:35.069Z,17.60
2022-08-14T06:27:06.159Z,17.50
2022-08-14T06:29:39.615Z,16.70
2022-08-14T06:32:36.786Z,17.40
2022-08-14T06:35:09.809Z,18.50
2022-08-14T06:37:45.428Z,16.20
2022-08-14T06:40:26.200Z,18.60
2022-08-14T06:43:00.118Z,18.80
2022-08-14T06:45:32.936Z,19.20
2022-08-14T06:48:06.208Z,18.10
2022-08-14T06:50:41.659Z,18.70
2022-08-14T06:53:17.225Z,19.50
2022-08-14T06:55:58.167Z,19.10
2022-08-14T06:58:31.912Z,18.80
2022-08-14T07:01:26.909Z,20.20
2022-08-14T07:04:23.076Z,19.40
2022-08-14T07:06:55.515Z,19.00
2022-08-14T07:09:43.501Z,20.60
2022-08-14T07:12:52.326Z,18.90
2022-08-14T07:15:08.870Z,19.40
2022-08-14T07:17:46.355Z,22.40
2022-08-14T07:20:30.930Z,21.00
2022-08-14T07:23:07.704Z,17.70
2022-08-14T07:25:38.935Z,18.00
2022-08-14T07:28:20.542Z,15.20
2022-08-14T07:30:52.147Z,13.00
2022-08-14T07:33:24.424Z,13.50
2022-08-14T07:35:59.698Z,11.00
2022-08-14T07:38:35.879Z,9.90
2022-08-14T07:41:14.411Z,8.70
2022-08-14T07:43:53.102Z,6.40
2022-08-14T07:46:29.398Z,6.50
2022-08-14T07:49:00.267Z,9.40
2022-08-14T07:51:34.414Z,7.10
2022-08-14T07:54:11.063Z,6.70
2022-08-14T07:56:48.193Z,6.20
2022-08-14T07:59:21.339Z,5.50
2022-08-14T08:02:19.651Z,6.80
2022-08-14T08:04:54.891Z,4.00
2022-08-14T08:07:29.586Z,4.20
2022-08-14T08:10:45.984Z,3.00
2022-08-14T08:13:16.016Z,3.80
2022-08-14T08:15:47.402Z,3.30
2022-08-14T08:18:20.337Z,3.40
2022-08-14T08:20:59.498Z,4.00
2022-08-14T08:23:40.515Z,4.00
2022-08-14T08:26:12.650Z,5.50
2022-08-14T08:28:43.911Z,6.00
2022-08-14T08:31:13.099Z,5.30
2022-08-14T08:33:43.069Z,6.30
2022-08-14T08:36:12.885Z,6.20
2022-08-14T08:39:14.611Z,5.50
2022-08-14T08:41:44.580Z,6.60
2022-08-14T08:44:17.273Z,5.90
2022-08-14T08:47:05.091Z,8.80
2022-08-14T08:49:42.293Z,7.50
2022-08-14T08:52:24.404Z,8.80
2022-08-14T08:54:55.691Z,8.10
2022-08-14T08:57:24.751Z,10.10
2022-08-14T08:59:55.356Z,9.20
2022-08-14T09:02:28.429Z,8.00
2022-08-14T09:05:03.841Z,7.90
2022-08-14T09:07:35.999Z,8.00
2022-08-14T09:10:06.119Z,10.00
2022-08-14T09:12:39.039Z,8.20
2022-08-14T09:15:15.618Z,8.90
2022-08-14T09:17:44.652Z,7.60
2022-08-14T09:20:26.354Z,6.90
2022-08-14T09:23:00.584Z,8.60
2022-08-14T09:25:59.080Z,5.80
2022-08-14T09:28:20.211Z,8.50
2022-08-14T09:30:56.179Z,7.70
2022-08-14T09:33:55.879Z,7.60
2022-08-14T09:36:40.145Z,8.50
2022-08-14T09:39:27.979Z,8.90
2022-08-14T09:42:17.816Z,8.50
2022-08-14T09:45:12.248Z,7.50
2022-08-14T09:47:46.545Z,8.50
2022-08-14T09:50:21.421Z,8.80
2022-08-14T09:52:58.077Z,8.10
2022-08-14T09:55:36.891Z,8.70
2022-08-14T09:58:19.441Z,7.70
2022-08-14T10:00:52.781Z,8.70
2022-08-14T10:03:34.356Z,10.30
2022-08-14T10:06:09.253Z,7.30
2022-08-14T10:08:50.894Z,9.50
2022-08-14T10:11:23.855Z,8.40
2022-08-14T10:13:57.495Z,8.90
2022-08-14T10:16:33.525Z,9.00
2022-08-14T10:19:07.081Z,9.60
2022-08-14T10:21:38.713Z,9.60
2022-08-14T10:24:12.496Z,9.00
2022-08-14T10:27:00.586Z,10.00
2022-08-14T10:29:35.127Z,10.50
2022-08-14T10:32:18.285Z,10.40
2022-08-14T10:35:13.348Z,9.80
2022-08-14T10:37:49.050Z,9.10
2022-08-14T10:40:37.989Z,9.80
2022-08-14T10:43:22.762Z,11.00
2022-08-14T10:46:21.947Z,10.70
2022-08-14T10:48:59.673Z,11.80
2022-08-14T10:51:34.049Z,12.30
2022-08-14T10:54:35.277Z,11.90
2022-08-14T10:56:58.316Z,11.80
2022-08-14T10:59:30.772Z,13.30
2022-08-14T11:02:00.680Z,12.90
2022-08-14T11:04:30.748Z,12.40
2022-08-14T11:07:00.013Z,12.30
2022-08-14T11:09:31.295Z,13.90
2022-08-14T11:12:33.793Z,12.60
2022-08-14T11:14:59.838Z,12.20
2022-08-14T11:17:33.013Z,12.60
2022-08-14T11:20:05.967Z,13.30
2022-08-14T11:23:03.157Z,12.20
2022-08-14T11:25:43.534Z,10.60
2022-08-14T11:28:14.874Z,11.00
2022-08-14T11:30:53.633Z,9.40
2022-08-14T11:33:24.691Z,8.70
2022-08-14T11:35:53.739Z,8.70
2022-08-14T11:38:35.553Z,10.10
2022-08-14T11:41:07.719Z,10.50
2022-08-14T11:43:40.567Z,11.80
2022-08-14T11:46:17.897Z,11.90
2022-08-14T11:49:03.994Z,12.30
2022-08-14T11:51:50.835Z,10.60
2022-08-14T11:54:34.578Z,10.80
2022-08-14T11:57:05.385Z,10.60
2022-08-14T11:59:34.348Z,11.90
2022-08-14T12:03:01.093Z,9.40
2022-08-14T12:05:04.768Z,10.40
2022-08-14T12:07:49.338Z,10.70
2022-08-14T12:10:26.121Z,8.90
2022-08-14T12:13:14.428Z,10.00
2022-08-14T12:15:56.804Z,11.10
2022-08-14T12:18:32.363Z,10.60
2022-08-14T12:21:15.698Z,12.10
2022-08-14T12:24:01.905Z,12.20
2022-08-14T12:26:39.866Z,13.20
2022-08-14T12:29:13.134Z,12.80
2022-08-14T12:31:44.546Z,12.40
2022-08-14T12:34:20.117Z,14.90
2022-08-14T12:36:49.630Z,15.00
2022-08-14T12:39:22.397Z,13.90
2022-08-14T12:41:57.294Z,15.50
2022-08-14T12:44:34.443Z,13.10
2022-08-14T12:47:10.637Z,14.40
2022-08-14T12:49:51.780Z,13.70
2022-08-14T12:52:45.165Z,14.90
2022-08-14T12:55:20.663Z,13.90
2022-08-14T12:57:53.126Z,12.70
2022-08-14T13:00:24.848Z,13.30
2022-08-14T13:02:56.602Z,13.70
2022-08-14T13:05:29.367Z,14.10
2022-08-14T13:08:00.722Z,14.20
2022-08-14T13:10:51.227Z,13.50
2022-08-14T13:13:22.373Z,15.30
2022-08-14T13:15:57.226Z,16.30
2022-08-14T13:18:46.736Z,14.60
2022-08-14T13:21:17.040Z,17.50
2022-08-14T13:23:46.596Z,15.90
2022-08-14T13:26:19.139Z,15.70
2022-08-14T13:29:02.481Z,18.10
2022-08-14T13:31:35.023Z,14.40
2022-08-14T13:34:04.505Z,13.20
2022-08-14T13:36:54.801Z,14.00
2022-08-14T13:39:24.559Z,11.00
2022-08-14T13:41:55.694Z,11.10
2022-08-14T13:44:28.084Z,13.60
2022-08-14T13:46:58.006Z,12.80
2022-08-14T13:49:29.046Z,14.10
2022-08-14T13:52:01.427Z,14.50
2022-08-14T13:54:34.023Z,14.90
2022-08-14T13:57:03.442Z,13.20
2022-08-14T13:59:37.981Z,12.50
2022-08-14T14:02:09.037Z,11.50
2022-08-14T14:04:42.776Z,14.70
2022-08-14T14:07:16.979Z,15.20
2022-08-14T14:09:52.965Z,13.80
2022-08-14T14:12:38.220Z,14.80
2022-08-14T14:15:13.988Z,13.80
2022-08-14T14:17:47.339Z,12.80
2022-08-14T14:20:35.553Z,12.30
2022-08-14T14:23:11.864Z,13.60
2022-08-14T14:25:48.119Z,13.70
2022-08-14T14:28:24.543Z,11.80
2022-08-14T14:30:57.362Z,11.30
2022-08-14T14:33:49.324Z,13.00
2022-08-14T14:36:24.417Z,12.00
2022-08-14T14:38:55.508Z,11.80
2022-08-14T14:41:26.211Z,13.20
2022-08-14T14:43:58.301Z,12.80
2022-08-14T14:46:36.630Z,10.40
2022-08-14T14:49:08.092Z,11.10
2022-08-14T14:51:43.988Z,11.80
2022-08-14T14:54:18.250Z,9.10
2022-08-14T14:56:51.580Z,8.90
2022-08-14T14:59:23.826Z,12.50
2022-08-14T15:01:59.375Z,11.00
2022-08-14T15:04:28.267Z,10.70
2022-08-14T15:06:57.231Z,11.20
2022-08-14T15:09:26.603Z,10.40
2022-08-14T15:11:57.160Z,9.00
2022-08-14T15:14:55.276Z,11.80
2022-08-14T15:17:16.487Z,9.70
2022-08-14T15:19:53.793Z,8.90
2022-08-14T15:22:28.286Z,8.60
2022-08-14T15:24:59.381Z,8.80
2022-08-14T15:27:30.963Z,10.00
2022-08-14T15:30:01.336Z,9.80
2022-08-14T15:32:31.520Z,9.70
2022-08-14T15:35:02.545Z,8.80
2022-08-14T15:37:32.890Z,9.20
2022-08-14T15:40:05.732Z,9.30
2022-08-14T15:42:39.501Z,10.60
2022-08-14T15:45:12.140Z,9.80
2022-08-14T15:50:12.214Z,9.10
2022-08-14T15:52:44.837Z,9.50
2022-08-14T15:55:16.107Z,8.90
2022-08-14T15:58:02.343Z,8.80
2022-08-14T16:00:53.532Z,8.60
2022-08-14T16:03:27.665Z,9.70
2022-08-14T16:06:05.836Z,7.50
2022-08-14T16:08:41.091Z,8.20
2022-08-14T16:11:11.299Z,9.80
2022-08-14T16:13:43.079Z,8.80
2022-08-14T16:16:49.364Z,8.00
2022-08-14T16:19:10.940Z,8.50
2022-08-14T16:22:02.320Z,8.20
2022-08-14T16:24:35.925Z,8.20
2022-08-14T16:27:39.678Z,10.30
2022-08-14T16:30:24.763Z,10.40
2022-08-14T16:32:59.419Z,10.80
2022-08-14T16:35:41.928Z,8.70
2022-08-14T16:40:25.544Z,9.90
2022-08-14T16:41:25.728Z,10.00
2022-08-14T16:44:01.156Z,8.40
2022-08-14T16:46:34.107Z,11.10
2022-08-14T16:49:05.395Z,9.10
2022-08-14T16:51:38.741Z,10.60
2022-08-14T16:54:20.703Z,9.00
2022-08-14T16:57:13.686Z,9.90
2022-08-14T16:59:51.907Z,9.70
2022-08-14T17:02:35.147Z,9.60
2022-08-14T17:05:21.610Z,9.50
2022-08-14T17:08:32.654Z,9.30
2022-08-14T17:11:10.571Z,9.40
2022-08-14T17:13:58.939Z,9.50
2022-08-14T17:16:37.151Z,11.40
2022-08-14T17:19:13.670Z,9.40
2022-08-14T17:21:47.585Z,8.30
2022-08-14T17:24:57.230Z,8.10
2022-08-14T17:27:08.347Z,9.50
2022-08-14T17:29:54.636Z,10.20
2022-08-14T17:32:55.654Z,9.60
2022-08-14T17:35:57.566Z,8.20
2022-08-14T17:38:38.703Z,9.00
2022-08-14T17:41:22.906Z,9.60
2022-08-14T17:43:55.321Z,9.80
2022-08-14T17:46:37.568Z,8.90
2022-08-14T17:49:18.132Z,10.60
2022-08-14T17:52:16.825Z,11.10
2022-08-14T17:54:52.665Z,10.50
2022-08-14T17:57:30.362Z,9.90
2022-08-14T18:00:09.374Z,9.50
2022-08-14T18:02:50.596Z,10.00
2022-08-14T18:05:23.353Z,8.80
2022-08-14T18:08:32.425Z,9.10
2022-08-14T18:11:03.219Z,9.90
2022-08-14T18:13:51.324Z,10.00
2022-08-14T18:16:22.992Z,10.10
2022-08-14T18:18:52.203Z,10.40
2022-08-14T18:21:56.597Z,11.20
2022-08-14T18:24:28.457Z,11.00
2022-08-14T18:27:06.895Z,9.30
2022-08-14T18:29:44.892Z,10.20
2022-08-14T18:32:47.179Z,10.00
2022-08-14T18:35:19.320Z,9.10
2022-08-14T18:37:56.158Z,9.70
2022-08-14T18:40:34.756Z,10.10
2022-08-14T18:43:07.156Z,9.70
2022-08-14T18:46:00.057Z,9.40
2022-08-14T18:48:43.016Z,9.90
2022-08-14T18:51:46.135Z,11.20
2022-08-14T18:54:29.970Z,10.00
2022-08-14T18:57:03.957Z,10.70
2022-08-14T18:59:39.231Z,11.60
2022-08-14T19:02:43.282Z,11.70
2022-08-14T19:05:13.017Z,12.60
2022-08-14T19:07:47.991Z,10.30
2022-08-14T19:10:37.204Z,14.10
2022-08-14T19:13:12.967Z,15.10
2022-08-14T19:16:03.577Z,13.50
2022-08-14T19:18:38.339Z,13.00
2022-08-14T19:21:25.004Z,11.40
2022-08-14T19:24:27.278Z,13.20
2022-08-14T19:27:19.291Z,14.90
2022-08-14T19:30:19.648Z,13.40
2022-08-14T19:32:53.025Z,16.90
2022-08-14T19:35:56.021Z,13.20
2022-08-14T19:38:54.707Z,12.50
2022-08-14T19:41:30.064Z,11.50
2022-08-14T19:44:11.721Z,13.50
2022-08-14T19:47:00.387Z,10.90
2022-08-14T19:50:08.709Z,11.50
2022-08-14T19:52:29.609Z,8.30
2022-08-14T19:55:34.162Z,9.60
2022-08-14T19:58:05.010Z,10.30
2022-08-14T20:00:34.675Z,8.30
2022-08-14T20:03:23.466Z,9.20
2022-08-14T20:06:02.570Z,8.60
2022-08-14T20:10:58.598Z,11.90
2022-08-14T20:12:00.677Z,13.40
2022-08-14T20:14:29.430Z,15.50
2022-08-14T20:17:06.323Z,12.10
2022-08-14T20:19:38.070Z,11.60
2022-08-14T20:22:36.948Z,11.40
2022-08-14T20:25:13.780Z,11.40
2022-08-14T20:27:49.090Z,8.30
2022-08-14T20:30:33.930Z,7.20
2022-08-14T20:33:07.503Z,7.60
2022-08-14T20:35:42.372Z,8.00
2022-08-14T20:38:29.277Z,7.00
2022-08-14T20:41:06.612Z,8.50
2022-08-14T20:43:56.329Z,9.50
2022-08-14T20:46:29.864Z,7.90
2022-08-14T20:49:01.428Z,8.50
2022-08-14T20:51:47.493Z,9.40
2022-08-14T20:54:34.605Z,8.20
2022-08-14T20:57:10.897Z,9.20
2022-08-14T20:59:43.363Z,7.50
2022-08-14T21:02:34.383Z,9.60
2022-08-14T21:05:18.043Z,7.80
2022-08-14T21:07:51.371Z,8.60
2022-08-14T21:10:35.235Z,8.60
2022-08-14T21:13:26.791Z,9.40
2022-08-14T21:15:57.488Z,9.30
2022-08-14T21:18:30.477Z,8.60
2022-08-14T21:21:07.098Z,9.40
2022-08-14T21:23:55.027Z,10.00
2022-08-14T21:26:51.284Z,9.70
2022-08-14T21:29:16.876Z,8.70
2022-08-14T21:31:55.777Z,9.40
2022-08-14T21:34:31.492Z,9.20
2022-08-14T21:37:08.862Z,9.20
2022-08-14T21:39:38.427Z,8.60
2022-08-14T21:42:10.955Z,9.70
2022-08-14T21:44:43.203Z,7.80
2022-08-14T21:47:16.010Z,8.70
2022-08-14T21:49:47.873Z,9.50
2022-08-14T21:52:50.645Z,10.40
2022-08-14T21:55:13.435Z,9.10
2022-08-14T21:57:56.615Z,8.50
2022-08-14T22:00:39.695Z,9.80
2022-08-14T22:03:16.467Z,8.10
2022-08-14T22:05:48.877Z,8.10
2022-08-14T22:08:20.711Z,7.90
2022-08-14T22:10:51.524Z,7.50
2022-08-14T22:13:25.863Z,9.00
2022-08-14T22:15:59.521Z,8.80
2022-08-14T22:18:29.843Z,9.60
2022-08-14T22:20:59.925Z,9.30
2022-08-14T22:26:05.181Z,7.10
2022-08-14T22:28:34.880Z,8.10
2022-08-14T22:31:10.678Z,9.50
2022-08-14T22:33:40.455Z,10.50
2022-08-14T22:36:33.844Z,8.50
2022-08-14T22:39:11.091Z,9.00
2022-08-14T22:41:43.170Z,8.50
2022-08-14T22:44:15.420Z,9.60
2022-08-14T22:46:45.314Z,9.90
2022-08-14T22:50:29.030Z,9.30
2022-08-14T22:52:33.323Z,9.50
2022-08-14T22:54:58.845Z,9.90
2022-08-14T22:57:37.595Z,9.10
2022-08-14T23:00:15.318Z,10.20
2022-08-14T23:02:47.124Z,9.40
2022-08-14T23:05:38.782Z,10.30
2022-08-14T23:09:01.644Z,9.20
2022-08-14T23:11:01.371Z,11.70
2022-08-14T23:13:32.651Z,10.50
2022-08-14T23:16:01.897Z,11.30
2022-08-14T23:18:30.724Z,12.00
2022-08-14T23:20:59.635Z,11.40
2022-08-14T23:23:28.820Z,9.70
2022-08-14T23:26:47.086Z,11.50
2022-08-14T23:28:58.524Z,10.20
2022-08-14T23:31:34.631Z,12.00
2022-08-14T23:34:07.691Z,10.20
2022-08-14T23:36:54.441Z,9.80
2022-08-14T23:39:30.183Z,9.80
2022-08-14T23:42:04.202Z,10.50
2022-08-14T23:44:36.434Z,11.50
2022-08-14T23:47:10.916Z,11.70
2022-08-14T23:50:03.167Z,11.10
2022-08-14T23:52:50.627Z,9.50
2022-08-14T23:55:29.143Z,8.80
2022-08-14T23:57:59.277Z,10.90
